createdAt,value
2018-08-18T00:01:01.335Z,11.53
2018-08-18T00:03:29.711Z,10.80
2018-08-18T00:05:58.241Z,10.63
2018-08-18T00:08:26.724Z,11.00
2018-08-18T00:10:55.192Z,11.23
2018-08-18T00:13:24.328Z,11.17
2018-08-18T00:15:52.741Z,11.40
2018-08-18T00:18:21.220Z,11.00
2018-08-18T00:20:49.656Z,10.90
2018-08-18T00:23:18.053Z,10.80
2018-08-18T00:25:46.452Z,10.83
2018-08-18T00:28:19.508Z,10.97
2018-08-18T00:30:47.964Z,11.17
2018-08-18T00:33:16.393Z,11.07
2018-08-18T00:35:44.850Z,11.50
2018-08-18T00:38:13.271Z,10.40
2018-08-18T00:40:41.682Z,11.17
2018-08-18T00:43:10.245Z,11.03
2018-08-18T00:45:38.719Z,10.50
2018-08-18T00:48:07.236Z,10.50
2018-08-18T00:50:42.684Z,11.13
2018-08-18T00:53:14.039Z,11.00
2018-08-18T00:55:42.477Z,10.97
2018-08-18T00:58:21.540Z,10.20
2018-08-18T01:01:05.952Z,10.70
2018-08-18T01:03:42.844Z,10.53
2018-08-18T01:06:19.379Z,9.60
2018-08-18T01:08:48.958Z,9.70
2018-08-18T01:11:17.470Z,10.80
2018-08-18T01:13:46.043Z,10.67
2018-08-18T01:16:14.312Z,10.43
2018-08-18T01:18:42.772Z,11.70
2018-08-18T01:21:11.259Z,11.13
2018-08-18T01:23:39.736Z,11.03
2018-08-18T01:26:08.164Z,10.87
2018-08-18T01:28:36.556Z,11.20
2018-08-18T01:31:15.472Z,10.63
2018-08-18T01:33:43.907Z,10.63
2018-08-18T01:36:12.388Z,11.03
2018-08-18T01:38:41.380Z,11.70
2018-08-18T01:41:20.100Z,10.63
2018-08-18T01:43:55.262Z,10.77
2018-08-18T01:46:23.612Z,10.67
2018-08-18T01:48:52.076Z,10.23
2018-08-18T01:51:23.163Z,10.30
2018-08-18T01:53:51.580Z,10.93
2018-08-18T01:56:20.704Z,11.60
2018-08-18T01:58:49.205Z,10.93
2018-08-18T02:01:17.620Z,10.67
2018-08-18T02:03:46.048Z,10.93
2018-08-18T02:06:14.549Z,10.07
2018-08-18T02:08:54.916Z,10.60
2018-08-18T02:11:25.638Z,11.10
2018-08-18T02:13:55.565Z,10.27
2018-08-18T02:16:26.104Z,9.77
2018-08-18T02:18:54.577Z,10.00
2018-08-18T02:21:30.887Z,9.13
2018-08-18T02:24:02.681Z,9.20
2018-08-18T02:26:31.769Z,9.37
2018-08-18T02:29:00.576Z,10.40
2018-08-18T02:31:28.976Z,9.03
2018-08-18T02:33:57.427Z,9.47
2018-08-18T02:36:26.526Z,9.63
2018-08-18T02:38:57.081Z,9.23
2018-08-18T02:41:27.185Z,8.90
2018-08-18T02:43:56.570Z,9.00
2018-08-18T02:46:36.231Z,8.80
2018-08-18T02:49:05.528Z,8.63
2018-08-18T02:51:34.531Z,9.17
2018-08-18T02:54:03.296Z,9.93
2018-08-18T02:56:37.276Z,9.07
2018-08-18T02:59:07.352Z,9.87
2018-08-18T03:01:38.919Z,9.40
2018-08-18T03:04:10.442Z,9.47
2018-08-18T03:06:39.432Z,9.53
2018-08-18T03:09:09.368Z,9.27
2018-08-18T03:11:42.660Z,9.93
2018-08-18T03:14:11.217Z,9.00
2018-08-18T03:16:42.329Z,9.60
2018-08-18T03:19:13.290Z,9.50
2018-08-18T03:21:42.692Z,9.17
2018-08-18T03:24:19.105Z,9.87
2018-08-18T03:26:49.322Z,9.63
2018-08-18T03:29:18.596Z,10.63
2018-08-18T03:31:47.410Z,9.87
2018-08-18T03:34:16.272Z,10.23
2018-08-18T03:36:47.191Z,9.70
2018-08-18T03:39:21.947Z,9.77
2018-08-18T03:41:51.687Z,8.77
2018-08-18T03:44:20.180Z,9.97
2018-08-18T03:46:48.587Z,10.17
2018-08-18T03:49:17.072Z,10.13
2018-08-18T03:51:49.714Z,9.77
2018-08-18T03:54:18.185Z,10.83
2018-08-18T03:56:46.933Z,11.37
2018-08-18T03:59:15.384Z,10.20
2018-08-18T04:01:47.582Z,10.93
2018-08-18T04:04:16.958Z,9.67
2018-08-18T04:06:46.568Z,10.83
2018-08-18T04:09:25.288Z,9.80
2018-08-18T04:11:54.077Z,10.33
2018-08-18T04:14:43.412Z,10.40
2018-08-18T04:17:23.771Z,10.30
2018-08-18T04:19:52.172Z,11.00
2018-08-18T04:22:22.374Z,10.00
2018-08-18T04:24:50.757Z,9.17
2018-08-18T04:27:54.367Z,9.87
2018-08-18T04:30:22.768Z,10.93
2018-08-18T04:32:57.745Z,10.90
2018-08-18T04:35:27.429Z,9.67
2018-08-18T04:37:56.768Z,11.07
2018-08-18T04:40:25.828Z,11.70
2018-08-18T04:42:56.440Z,10.60
2018-08-18T04:45:24.974Z,10.43
2018-08-18T04:47:53.413Z,10.73
2018-08-18T04:50:22.361Z,10.47
2018-08-18T04:52:52.584Z,9.50
2018-08-18T04:55:21.253Z,10.63
2018-08-18T04:57:49.933Z,10.30
2018-08-18T05:00:18.403Z,10.70
2018-08-18T05:02:52.214Z,10.00
2018-08-18T05:05:36.300Z,9.50
2018-08-18T05:08:04.837Z,9.60
2018-08-18T05:10:33.279Z,10.30
2018-08-18T05:13:01.674Z,10.40
2018-08-18T05:15:30.083Z,9.77
2018-08-18T05:17:58.474Z,9.97
2018-08-18T05:20:27.596Z,10.40
2018-08-18T05:23:02.793Z,9.07
2018-08-18T05:25:36.068Z,9.90
2018-08-18T05:28:04.521Z,16.20
2018-08-18T05:30:32.945Z,17.03
2018-08-18T05:33:01.346Z,9.77
2018-08-18T05:35:29.737Z,10.07
2018-08-18T05:37:58.200Z,9.83
2018-08-18T05:40:26.612Z,9.77
2018-08-18T05:42:55.327Z,10.10
2018-08-18T05:45:31.856Z,11.67
2018-08-18T05:48:00.284Z,13.63
2018-08-18T05:50:29.824Z,10.93
2018-08-18T05:53:18.445Z,10.43
2018-08-18T05:55:47.574Z,9.67
2018-08-18T05:58:16.000Z,9.33
2018-08-18T06:00:44.420Z,9.17
2018-08-18T06:03:16.888Z,9.73
2018-08-18T06:05:45.488Z,10.67
2018-08-18T06:08:13.860Z,10.20
2018-08-18T06:10:42.249Z,10.80
2018-08-18T06:13:16.360Z,9.20
2018-08-18T06:16:19.605Z,9.87
2018-08-18T06:18:48.012Z,13.00
2018-08-18T06:21:16.408Z,9.67
2018-08-18T06:23:46.141Z,7.70
2018-08-18T06:26:14.564Z,8.00
2018-08-18T06:28:42.959Z,7.57
2018-08-18T06:31:11.356Z,9.00
2018-08-18T06:33:39.732Z,8.43
2018-08-18T06:36:08.205Z,9.00
2018-08-18T06:38:36.685Z,9.20
2018-08-18T06:41:05.172Z,8.60
2018-08-18T06:43:34.711Z,9.93
2018-08-18T06:46:03.399Z,8.30
2018-08-18T06:48:33.523Z,8.30
2018-08-18T06:51:02.202Z,7.50
2018-08-18T06:53:35.312Z,8.00
2018-08-18T06:56:03.792Z,12.93
2018-08-18T06:58:32.188Z,9.53
2018-08-18T07:01:00.640Z,8.00
2018-08-18T07:03:43.951Z,7.90
2018-08-18T07:06:13.472Z,8.93
2018-08-18T07:08:47.407Z,7.50
2018-08-18T07:11:15.827Z,9.27
2018-08-18T07:13:45.044Z,8.30
2018-08-18T07:16:13.468Z,7.73
2018-08-18T07:18:41.880Z,7.93
2018-08-18T07:21:10.314Z,7.70
2018-08-18T07:23:38.887Z,7.80
2018-08-18T07:26:07.726Z,7.30
2018-08-18T07:28:36.154Z,7.33
2018-08-18T07:31:04.568Z,7.43
2018-08-18T07:33:32.980Z,8.07
2018-08-18T07:36:01.392Z,7.40
2018-08-18T07:38:29.812Z,7.13
2018-08-18T07:40:58.228Z,8.37
2018-08-18T07:43:29.715Z,7.67
2018-08-18T07:45:59.756Z,7.47
2018-08-18T07:48:28.203Z,7.33
2018-08-18T07:50:56.617Z,6.40
2018-08-18T07:53:25.052Z,6.47
2018-08-18T07:55:53.469Z,6.77
2018-08-18T07:58:23.148Z,6.17
2018-08-18T08:00:51.574Z,7.00
2018-08-18T08:03:20.730Z,5.63
2018-08-18T08:05:49.134Z,5.53
2018-08-18T08:08:17.561Z,6.00
2018-08-18T08:10:45.959Z,5.93
2018-08-18T08:13:15.060Z,6.03
2018-08-18T08:15:43.568Z,6.20
2018-08-18T08:18:13.783Z,6.27
2018-08-18T08:20:42.301Z,5.93
2018-08-18T08:23:10.790Z,5.80
2018-08-18T08:25:39.315Z,6.23
2018-08-18T08:28:07.849Z,5.80
2018-08-18T08:30:36.335Z,5.70
2018-08-18T08:33:04.804Z,5.50
2018-08-18T08:35:35.182Z,5.23
2018-08-18T08:38:03.641Z,5.40
2018-08-18T08:40:32.052Z,4.83
2018-08-18T08:43:00.605Z,5.57
2018-08-18T08:45:28.997Z,5.33
2018-08-18T08:47:57.481Z,4.77
2018-08-18T08:50:26.230Z,5.40
2018-08-18T08:52:55.996Z,5.20
2018-08-18T08:55:28.773Z,5.23
2018-08-18T08:57:57.325Z,4.93
2018-08-18T09:00:25.759Z,5.13
2018-08-18T09:02:54.201Z,4.37
2018-08-18T09:05:22.694Z,4.00
2018-08-18T09:07:51.172Z,4.40
2018-08-18T09:10:19.631Z,4.47
2018-08-18T09:12:47.982Z,4.23
2018-08-18T09:15:17.345Z,4.33
2018-08-18T09:17:45.848Z,3.97
2018-08-18T09:20:17.544Z,3.67
2018-08-18T09:23:03.004Z,4.77
2018-08-18T09:25:32.569Z,3.60
2018-08-18T09:28:02.597Z,3.50
2018-08-18T09:30:32.201Z,3.67
2018-08-18T09:33:06.624Z,3.80
2018-08-18T09:35:53.224Z,3.97
2018-08-18T09:38:21.675Z,3.87
2018-08-18T09:40:50.154Z,6.27
2018-08-18T09:43:24.626Z,4.43
2018-08-18T09:45:54.351Z,4.30
2018-08-18T09:48:23.406Z,4.03
2018-08-18T09:50:52.273Z,3.90
2018-08-18T09:53:20.712Z,3.50
2018-08-18T09:55:49.451Z,4.10
2018-08-18T09:58:17.885Z,3.37
2018-08-18T10:00:46.332Z,3.63
2018-08-18T10:03:14.728Z,4.03
2018-08-18T10:05:43.161Z,4.50
2018-08-18T10:08:11.612Z,4.17
2018-08-18T10:10:40.053Z,3.53
2018-08-18T10:13:08.540Z,3.57
2018-08-18T10:15:36.932Z,4.50
2018-08-18T10:18:05.628Z,3.80
2018-08-18T10:20:41.180Z,4.47
2018-08-18T10:23:10.543Z,4.43
2018-08-18T10:25:38.978Z,4.47
2018-08-18T10:28:07.432Z,3.67
2018-08-18T10:30:35.870Z,3.77
2018-08-18T10:33:04.889Z,4.10
2018-08-18T10:35:33.539Z,3.73
2018-08-18T10:38:03.205Z,3.37
2018-08-18T10:40:31.712Z,3.57
2018-08-18T10:43:00.176Z,3.10
2018-08-18T10:45:28.594Z,4.83
2018-08-18T10:47:57.136Z,3.80
2018-08-18T10:50:42.355Z,3.40
2018-08-18T10:53:10.840Z,3.83
2018-08-18T10:55:39.264Z,3.73
2018-08-18T10:58:09.136Z,3.70
2018-08-18T11:00:38.170Z,4.20
2018-08-18T11:03:07.753Z,3.93
2018-08-18T11:05:36.169Z,3.13
2018-08-18T11:08:09.639Z,3.10
2018-08-18T11:10:39.694Z,2.63
2018-08-18T11:13:08.182Z,3.17
2018-08-18T11:15:36.647Z,2.73
2018-08-18T11:18:05.439Z,2.60
2018-08-18T11:20:34.914Z,2.57
2018-08-18T11:23:07.271Z,2.70
2018-08-18T11:32:42.916Z,2.13
2018-08-18T11:35:11.406Z,2.80
2018-08-18T11:37:52.860Z,2.60
2018-08-18T11:40:22.644Z,2.50
2018-08-18T11:42:51.184Z,2.43
2018-08-18T11:45:21.645Z,2.33
2018-08-18T11:47:57.867Z,2.67
2018-08-18T11:50:27.544Z,2.80
2018-08-18T11:52:56.216Z,2.70
2018-08-18T11:55:24.753Z,2.50
2018-08-18T11:57:54.752Z,3.10
2018-08-18T12:00:23.977Z,2.90
2018-08-18T12:02:53.765Z,3.57
2018-08-18T12:05:22.333Z,17.77
2018-08-18T12:07:51.720Z,3.43
2018-08-18T12:10:20.112Z,2.50
2018-08-18T12:12:48.579Z,3.50
2018-08-18T12:15:17.055Z,3.07
2018-08-18T12:17:55.802Z,2.60
2018-08-18T12:20:24.312Z,2.57
2018-08-18T12:22:54.289Z,2.70
2018-08-18T12:25:23.072Z,3.37
2018-08-18T12:27:51.498Z,3.50
2018-08-18T12:30:28.456Z,4.03
2018-08-18T12:32:56.908Z,3.10
2018-08-18T12:35:31.398Z,2.97
2018-08-18T12:38:00.418Z,3.07
2018-08-18T12:40:29.223Z,3.13
2018-08-18T12:42:57.638Z,2.80
2018-08-18T12:45:26.092Z,2.40
2018-08-18T12:48:03.244Z,3.40
2018-08-18T12:50:31.722Z,2.63
2018-08-18T12:53:00.188Z,2.60
2018-08-18T12:55:28.587Z,2.77
2018-08-18T12:57:57.001Z,3.10
2018-08-18T13:00:25.424Z,2.30
2018-08-18T13:02:55.188Z,2.53
2018-08-18T13:05:25.660Z,2.57
2018-08-18T13:07:55.244Z,2.67
2018-08-18T13:10:26.989Z,2.40
2018-08-18T13:12:56.157Z,2.50
2018-08-18T13:15:24.833Z,4.43
2018-08-18T13:17:53.205Z,2.90
2018-08-18T13:20:23.804Z,5.90
2018-08-18T13:22:52.384Z,3.70
2018-08-18T13:25:21.021Z,3.37
2018-08-18T13:27:55.576Z,3.43
2018-08-18T13:30:25.669Z,3.13
2018-08-18T13:32:58.277Z,3.03
2018-08-18T13:35:26.727Z,2.80
2018-08-18T13:37:55.444Z,2.90
2018-08-18T13:40:27.016Z,3.00
2018-08-18T13:42:55.427Z,3.50
2018-08-18T13:45:43.072Z,2.97
2018-08-18T13:48:12.407Z,3.40
2018-08-18T13:50:41.375Z,2.80
2018-08-18T13:53:09.818Z,2.57
2018-08-18T13:55:41.628Z,3.07
2018-08-18T13:58:11.868Z,3.23
2018-08-18T14:00:40.325Z,3.30
2018-08-18T14:03:26.057Z,2.73
2018-08-18T14:05:55.209Z,3.40
2018-08-18T14:08:23.661Z,3.60
2018-08-18T14:10:52.223Z,4.97
2018-08-18T14:13:20.567Z,2.70
2018-08-18T14:15:53.180Z,2.57
2018-08-18T14:18:21.607Z,2.70
2018-08-18T14:21:03.528Z,2.30
2018-08-18T14:23:31.973Z,2.83
2018-08-18T14:26:00.392Z,2.30
2018-08-18T14:28:28.908Z,5.33
2018-08-18T14:30:57.320Z,3.67
2018-08-18T14:33:25.720Z,2.60
2018-08-18T14:35:58.368Z,2.87
2018-08-18T14:38:27.243Z,2.67
2018-08-18T14:40:55.748Z,2.83
2018-08-18T14:43:28.435Z,2.40
2018-08-18T14:45:57.312Z,2.67
2018-08-18T14:48:26.296Z,2.97
2018-08-18T14:50:54.701Z,10.80
2018-08-18T14:53:24.620Z,2.63
2018-08-18T14:55:53.519Z,2.43
2018-08-18T14:58:37.553Z,3.37
2018-08-18T15:01:10.988Z,3.63
2018-08-18T15:03:40.053Z,2.83
2018-08-18T15:06:08.750Z,2.60
2018-08-18T15:08:37.201Z,2.90
2018-08-18T15:11:05.794Z,3.00
2018-08-18T15:13:34.208Z,2.80
2018-08-18T15:16:02.635Z,2.90
2018-08-18T15:18:31.108Z,2.80
2018-08-18T15:20:59.610Z,2.57
2018-08-18T15:23:27.989Z,2.50
2018-08-18T15:25:56.401Z,4.60
2018-08-18T15:28:24.980Z,2.70
2018-08-18T15:30:54.569Z,2.87
2018-08-18T15:33:24.507Z,2.63
2018-08-18T15:35:52.990Z,2.97
2018-08-18T15:38:37.071Z,2.37
2018-08-18T15:41:05.516Z,2.97
2018-08-18T15:43:33.960Z,2.80
2018-08-18T15:46:03.798Z,3.40
2018-08-18T15:48:32.297Z,2.90
2018-08-18T15:51:00.768Z,3.13
2018-08-18T15:53:59.433Z,2.53
2018-08-18T15:56:28.885Z,2.30
2018-08-18T15:58:58.201Z,3.03
2018-08-18T16:01:29.919Z,3.30
2018-08-18T16:04:00.473Z,3.20
2018-08-18T16:06:28.928Z,3.10
2018-08-18T16:08:57.324Z,2.80
2018-08-18T16:11:25.993Z,2.70
2018-08-18T16:13:54.509Z,3.00
2018-08-18T16:16:22.885Z,2.93
2018-08-18T16:19:00.644Z,3.10
2018-08-18T16:21:31.463Z,4.77
2018-08-18T16:24:00.662Z,4.00
2018-08-18T16:26:29.090Z,4.47
2018-08-18T16:28:57.660Z,3.67
2018-08-18T16:31:26.210Z,3.00
2018-08-18T16:33:55.054Z,2.73
2018-08-18T16:36:27.339Z,2.70
2018-08-18T16:38:56.513Z,3.00
2018-08-18T16:41:25.108Z,4.20
2018-08-18T16:43:54.256Z,2.50
2018-08-18T16:46:27.944Z,2.87
2018-08-18T16:48:57.238Z,2.50
2018-08-18T16:51:25.746Z,2.67
2018-08-18T16:53:54.212Z,3.07
2018-08-18T16:56:24.798Z,2.20
2018-08-18T16:58:54.842Z,2.40
2018-08-18T17:01:23.702Z,2.10
2018-08-18T17:03:52.492Z,2.20
2018-08-18T17:06:20.983Z,2.73
2018-08-18T17:08:49.478Z,2.60
2018-08-18T17:11:18.012Z,2.00
2018-08-18T17:13:46.425Z,2.30
2018-08-18T17:16:14.838Z,2.87
2018-08-18T17:18:43.247Z,2.27
2018-08-18T17:21:13.452Z,2.47
2018-08-18T17:23:42.695Z,2.50
2018-08-18T17:26:11.105Z,2.37
2018-08-18T17:28:39.721Z,2.07
2018-08-18T17:31:08.205Z,2.30
2018-08-18T17:33:36.600Z,2.40
2018-08-18T17:36:05.246Z,2.60
2018-08-18T17:38:33.748Z,2.53
2018-08-18T17:41:02.268Z,2.67
2018-08-18T17:43:30.892Z,2.60
2018-08-18T17:46:01.171Z,2.07
2018-08-18T17:48:32.987Z,2.30
2018-08-18T17:51:01.469Z,2.00
2018-08-18T17:53:30.446Z,1.93
2018-08-18T17:56:07.439Z,1.93
2018-08-18T17:58:35.933Z,2.17
2018-08-18T18:01:06.225Z,2.20
2018-08-18T18:03:34.810Z,2.03
2018-08-18T18:06:03.264Z,2.57
2018-08-18T18:08:31.906Z,2.80
2018-08-18T18:11:00.917Z,2.63
2018-08-18T18:13:30.255Z,2.43
2018-08-18T18:15:58.690Z,2.00
2018-08-18T18:18:46.236Z,2.17
2018-08-18T18:21:14.947Z,3.60
2018-08-18T18:23:43.600Z,2.70
2018-08-18T18:26:12.001Z,3.50
2018-08-18T18:28:40.541Z,3.10
2018-08-18T18:31:08.969Z,2.97
2018-08-18T18:33:37.433Z,4.73
2018-08-18T18:36:06.139Z,5.47
2018-08-18T18:38:48.936Z,5.97
2018-08-18T18:41:17.352Z,9.13
2018-08-18T18:43:56.680Z,4.63
2018-08-18T18:46:25.367Z,2.70
2018-08-18T18:48:53.986Z,3.20
2018-08-18T18:51:22.400Z,3.40
2018-08-18T18:53:52.292Z,2.73
2018-08-18T18:56:21.300Z,2.70
2018-08-18T18:58:49.923Z,2.53
2018-08-18T19:01:19.843Z,2.43
2018-08-18T19:03:49.101Z,2.80
2018-08-18T19:06:17.650Z,3.13
2018-08-18T19:09:00.040Z,2.70
2018-08-18T19:11:29.024Z,2.60
2018-08-18T19:13:58.337Z,3.00
2018-08-18T19:16:27.303Z,2.50
2018-08-18T19:18:56.135Z,2.80
2018-08-18T19:21:29.868Z,2.90
2018-08-18T19:23:58.642Z,3.20
2018-08-18T19:26:36.281Z,2.67
2018-08-18T19:29:04.748Z,3.30
2018-08-18T19:31:35.451Z,3.83
2018-08-18T19:34:10.943Z,3.70
2018-08-18T19:36:53.252Z,3.20
2018-08-18T19:39:23.254Z,2.60
2018-08-18T19:41:51.683Z,3.03
2018-08-18T19:44:20.088Z,4.07
2018-08-18T19:46:48.631Z,3.20
2018-08-18T19:49:28.213Z,3.07
2018-08-18T19:51:57.718Z,3.00
2018-08-18T19:54:26.161Z,3.43
2018-08-18T19:56:54.563Z,3.90
2018-08-18T19:59:23.014Z,3.80
2018-08-18T20:01:51.477Z,3.80
2018-08-18T20:04:20.437Z,3.63
2018-08-18T20:06:48.853Z,3.70
2018-08-18T20:09:17.278Z,3.70
2018-08-18T20:11:45.769Z,3.77
2018-08-18T20:14:14.237Z,4.60
2018-08-18T20:16:42.739Z,3.90
2018-08-18T20:19:11.177Z,3.40
2018-08-18T20:21:39.634Z,3.40
2018-08-18T20:24:08.109Z,3.73
2018-08-18T20:26:36.508Z,3.43
2018-08-18T20:29:04.996Z,3.10
2018-08-18T20:31:33.502Z,3.83
2018-08-18T20:34:01.953Z,3.33
2018-08-18T20:36:30.393Z,3.43
2018-08-18T20:38:58.817Z,3.67
2018-08-18T20:41:27.252Z,3.50
2018-08-18T20:43:55.760Z,3.70
2018-08-18T20:46:24.193Z,3.60
2018-08-18T20:48:52.771Z,4.77
2018-08-18T20:51:40.847Z,6.03
2018-08-18T20:54:09.297Z,5.00
2018-08-18T20:56:37.737Z,4.80
2018-08-18T20:59:06.313Z,8.00
2018-08-18T21:01:34.761Z,8.03
2018-08-18T21:04:03.263Z,8.70
2018-08-18T21:06:31.724Z,8.33
2018-08-18T21:09:00.394Z,6.50
2018-08-18T21:11:28.808Z,8.00
2018-08-18T21:13:57.613Z,8.37
2018-08-18T21:16:26.070Z,9.80
2018-08-18T21:18:54.764Z,9.40
2018-08-18T21:21:31.492Z,9.37
2018-08-18T21:23:59.905Z,8.37
2018-08-18T21:26:29.021Z,7.73
2018-08-18T21:28:58.228Z,6.53
2018-08-18T21:31:32.066Z,6.67
2018-08-18T21:34:02.056Z,6.03
2018-08-18T21:36:31.220Z,6.93
2018-08-18T21:39:01.035Z,5.67
2018-08-18T21:41:30.382Z,5.67
2018-08-18T21:43:58.838Z,5.43
2018-08-18T21:46:34.063Z,5.40
2018-08-18T21:49:02.779Z,5.20
2018-08-18T21:51:31.192Z,5.50
2018-08-18T21:53:59.629Z,5.10
2018-08-18T21:56:35.044Z,5.40
2018-08-18T21:59:05.914Z,5.20
2018-08-18T22:01:34.806Z,5.63
2018-08-18T22:04:03.361Z,5.13
2018-08-18T22:06:31.953Z,5.23
2018-08-18T22:09:18.928Z,5.50
2018-08-18T22:11:47.775Z,5.60
2018-08-18T22:14:17.393Z,5.33
2018-08-18T22:16:57.485Z,5.17
2018-08-18T22:19:27.182Z,5.20
2018-08-18T22:21:55.566Z,5.50
2018-08-18T22:24:24.103Z,5.23
2018-08-18T22:26:52.623Z,5.33
2018-08-18T22:29:25.074Z,5.27
2018-08-18T22:31:53.844Z,5.13
2018-08-18T22:34:22.352Z,5.00
2018-08-18T22:36:54.004Z,4.90
2018-08-18T22:39:22.428Z,5.57
2018-08-18T22:41:50.853Z,5.70
2018-08-18T22:44:19.269Z,5.63
2018-08-18T22:46:47.721Z,5.47
2018-08-18T22:49:16.158Z,5.60
2018-08-18T22:51:44.571Z,4.87
2018-08-18T22:54:12.984Z,5.13
2018-08-18T22:56:41.932Z,5.17
2018-08-18T22:59:10.371Z,5.20
2018-08-18T23:01:38.868Z,5.37
2018-08-18T23:04:42.397Z,5.77
2018-08-18T23:07:10.837Z,5.47
2018-08-18T23:09:39.220Z,5.67
2018-08-18T23:12:08.111Z,5.70
2018-08-18T23:14:37.773Z,5.10
2018-08-18T23:17:07.779Z,5.77
2018-08-18T23:19:36.336Z,5.80
2018-08-18T23:22:04.837Z,5.73
2018-08-18T23:24:34.555Z,6.00
2018-08-18T23:27:03.244Z,6.03
2018-08-18T23:29:31.717Z,6.30
2018-08-18T23:32:02.125Z,6.00
2018-08-18T23:34:30.521Z,6.13
2018-08-18T23:36:59.359Z,6.00
2018-08-18T23:39:27.805Z,5.60
2018-08-18T23:42:16.341Z,5.90
2018-08-18T23:44:45.045Z,6.13
2018-08-18T23:47:13.459Z,6.30
2018-08-18T23:49:41.895Z,6.10
2018-08-18T23:52:10.368Z,5.80
2018-08-18T23:54:38.808Z,5.90
2018-08-18T23:57:07.228Z,5.80
2018-08-18T23:59:36.032Z,5.60
